Sterling, VA

4:52 AM EDT on October 18, 2019 (GMT -0400)
Loudon Valley Estates III | | Change Station
Active Advisory: Frost Advisory

Elev 289 ft 38.97 °N, 77.49 °W | Updated 30 seconds ago

Partly Cloudy
Partly Cloudy
47.8 °F
Feels Like 48 °F
N
2.68
Wind Variable Wind from West
Gusts 5.4 mph

Today
High -- | Low -- °F
--% Chance of Precip.
Yesterday
High -- | Low -- °F
Precip. -- in
Pressure 29.88 in
Visibility 10.0 miles
Clouds Few 5000 ft
Windchill 48 °F
Dew Point 40 °F
Humidity 73%
Rainfall 0.00 in
Snow Depth Not available.
7:22 AM 6:27 PM
Waning Gibbous, 81% visible
METAR KIAD 180752Z 31010KT 10SM FEW050 09/01 A2987 RMK AO2 SLP116 T00940006
Pressure 29.88 in
Visibility 10.0 miles
Clouds Few 5000 ft
Windchill 48 °F
Dew Point 40 °F
Humidity 73%
Rainfall 0.00 in
Snow Depth Not available.
7:22 AM 6:27 PM
Waning Gibbous, 81% visible
METAR KIAD 180752Z 31010KT 10SM FEW050 09/01 A2987 RMK AO2 SLP116 T00940006

Get Your Daily Forecast Email!

Thanks for signing up!

Be on the lookout for a verification email in your inbox.

You'll start receiving severe weather alerts in your inbox..

×

10-Day Weather Forecast

Almanac

Astronomy

Oct. 18, 2019 Rise Set
Actual Time
Civil Twilight
Nautical Twilight
Astronomical Twilight
Moon
Length of Visible Light
Length of Day
Tomorrow will be .
, % of the Moon is Illuminated

Today's Extremes

State Highs State Lows

Community

WunderPhotos

Category 6

Welcome to Category 6. This is the collective home for Weather Underground's featured writeups by Dr. Jeff Masters (right), Bob Henson (left), Chris Burt, and other regular contributors.

Nearby

Air Quality

  Air Quality AQ Index Pollutant
Not available.

Snow Depth

Station Depth Elevation

Earthquake Activity

City Distance Mag. Time & Date
Minimum magnitude displayed is 2.5.

Coastal Water Temperatures

Place Temperature

Stations

Nearby Weather Stations

Station Location Temp. Windchill Dew Point Humidity Wind Precip. Elev Updated Type
                   

Watches & Warnings

Frost Advisory
Issued: 3:15 AM EDT Oct. 18, 2019 – National Weather Service

... Frost advisory in effect from 2 am to 9 am EDT Saturday...

* what... temperatures around 33 to 36 degrees resulting in areas
of frost.

* Where... central Maryland, northern and central Virginia, and
the Potomac Highlands.

* When... from 2 am to 9 am EDT Saturday.

* Impacts... frost could kill sensitive outdoor vegetation if
left uncovered.


Precautionary/preparedness actions...

Take steps now to protect tender plants from the cold.